sensor_id;sensor_type;location;lat;lon;timestamp;P1;P2;P0
66155;PMS5003;52957;50.848;20.656;2024-01-27T00:00:05;18;17;12
66155;PMS5003;52957;50.848;20.656;2024-01-27T00:10:12;23;23;18
66155;PMS5003;52957;50.848;20.656;2024-01-27T00:20:14;23;23;18
66155;PMS5003;52957;50.848;20.656;2024-01-27T00:30:18;23;23;18
66155;PMS5003;52957;50.848;20.656;2024-01-27T00:40:06;3;3;2
66155;PMS5003;52957;50.848;20.656;2024-01-27T00:50:13;3;3;2
66155;PMS5003;52957;50.848;20.656;2024-01-27T01:00:22;3;3;2
66155;PMS5003;52957;50.848;20.656;2024-01-27T01:10:05;2;2;2
66155;PMS5003;52957;50.848;20.656;2024-01-27T01:20:02;2;2;2
66155;PMS5003;52957;50.848;20.656;2024-01-27T01:30:19;2;2;2
66155;PMS5003;52957;50.848;20.656;2024-01-27T01:40:05;6;5;3
66155;PMS5003;52957;50.848;20.656;2024-01-27T01:50:26;6;5;3
66155;PMS5003;52957;50.848;20.656;2024-01-27T02:00:23;6;5;3
66155;PMS5003;52957;50.848;20.656;2024-01-27T02:10:15;6;6;3
66155;PMS5003;52957;50.848;20.656;2024-01-27T02:20:17;6;6;3
66155;PMS5003;52957;50.848;20.656;2024-01-27T02:30:05;6;6;3
66155;PMS5003;52957;50.848;20.656;2024-01-27T02:40:08;3;3;2
66155;PMS5003;52957;50.848;20.656;2024-01-27T02:50:14;3;3;2
66155;PMS5003;52957;50.848;20.656;2024-01-27T03:00:01;3;3;2
66155;PMS5003;52957;50.848;20.656;2024-01-27T03:10:04;7;6;3
66155;PMS5003;52957;50.848;20.656;2024-01-27T03:20:11;7;6;3
66155;PMS5003;52957;50.848;20.656;2024-01-27T03:30:02;7;6;3
66155;PMS5003;52957;50.848;20.656;2024-01-27T03:40:16;7;7;4
66155;PMS5003;52957;50.848;20.656;2024-01-27T03:50:15;7;7;4
66155;PMS5003;52957;50.848;20.656;2024-01-27T04:00:16;7;7;4
66155;PMS5003;52957;50.848;20.656;2024-01-27T04:10:17;4;4;2
66155;PMS5003;52957;50.848;20.656;2024-01-27T04:20:05;4;4;2
66155;PMS5003;52957;50.848;20.656;2024-01-27T04:30:08;4;4;2
66155;PMS5003;52957;50.848;20.656;2024-01-27T04:40:09;8;6;4
66155;PMS5003;52957;50.848;20.656;2024-01-27T04:50:04;8;6;4
66155;PMS5003;52957;50.848;20.656;2024-01-27T05:00:21;8;6;4
66155;PMS5003;52957;50.848;20.656;2024-01-27T05:10:25;13;13;9
66155;PMS5003;52957;50.848;20.656;2024-01-27T05:20:14;13;13;9
66155;PMS5003;52957;50.848;20.656;2024-01-27T05:30:19;13;13;9
66155;PMS5003;52957;50.848;20.656;2024-01-27T05:40:19;4;4;2
66155;PMS5003;52957;50.848;20.656;2024-01-27T05:50:08;4;4;2
66155;PMS5003;52957;50.848;20.656;2024-01-27T06:00:21;4;4;2
66155;PMS5003;52957;50.848;20.656;2024-01-27T06:10:04;5;5;3
66155;PMS5003;52957;50.848;20.656;2024-01-27T06:20:05;5;5;3
66155;PMS5003;52957;50.848;20.656;2024-01-27T06:30:11;5;5;3
66155;PMS5003;52957;50.848;20.656;2024-01-27T06:40:02;4;4;2
66155;PMS5003;52957;50.848;20.656;2024-01-27T06:50:18;4;4;2
66155;PMS5003;52957;50.848;20.656;2024-01-27T07:00:14;4;4;2
66155;PMS5003;52957;50.848;20.656;2024-01-27T07:10:14;61;47;23
66155;PMS5003;52957;50.848;20.656;2024-01-27T07:20:17;61;47;23
66155;PMS5003;52957;50.848;20.656;2024-01-27T07:30:15;61;47;23
66155;PMS5003;52957;50.848;20.656;2024-01-27T07:40:19;38;32;17
66155;PMS5003;52957;50.848;20.656;2024-01-27T07:50:02;38;32;17
66155;PMS5003;52957;50.848;20.656;2024-01-27T08:00:02;38;32;17
66155;PMS5003;52957;50.848;20.656;2024-01-27T08:10:26;33;31;20
66155;PMS5003;52957;50.848;20.656;2024-01-27T08:20:16;33;31;20
66155;PMS5003;52957;50.848;20.656;2024-01-27T08:30:17;33;31;20
66155;PMS5003;52957;50.848;20.656;2024-01-27T08:40:09;73;57;34
66155;PMS5003;52957;50.848;20.656;2024-01-27T08:50:11;73;57;34
66155;PMS5003;52957;50.848;20.656;2024-01-27T09:00:11;73;57;34
66155;PMS5003;52957;50.848;20.656;2024-01-27T09:10:15;19;18;11
66155;PMS5003;52957;50.848;20.656;2024-01-27T09:20:07;19;18;11
66155;PMS5003;52957;50.848;20.656;2024-01-27T09:30:16;19;18;11
66155;PMS5003;52957;50.848;20.656;2024-01-27T09:40:02;18;17;10
66155;PMS5003;52957;50.848;20.656;2024-01-27T09:50:18;18;17;10
66155;PMS5003;52957;50.848;20.656;2024-01-27T10:00:05;18;17;10
66155;PMS5003;52957;50.848;20.656;2024-01-27T10:20:29;20;19;12
66155;PMS5003;52957;50.848;20.656;2024-01-27T10:30:05;20;19;12
66155;PMS5003;52957;50.848;20.656;2024-01-27T10:40:08;42;35;23
66155;PMS5003;52957;50.848;20.656;2024-01-27T10:50:10;42;35;23
66155;PMS5003;52957;50.848;20.656;2024-01-27T11:00:16;42;35;23
66155;PMS5003;52957;50.848;20.656;2024-01-27T11:10:06;13;13;9
66155;PMS5003;52957;50.848;20.656;2024-01-27T11:20:11;13;13;9
66155;PMS5003;52957;50.848;20.656;2024-01-27T11:30:02;13;13;9
66155;PMS5003;52957;50.848;20.656;2024-01-27T11:50:07;21;20;15
66155;PMS5003;52957;50.848;20.656;2024-01-27T12:00:14;21;20;15
66155;PMS5003;52957;50.848;20.656;2024-01-27T12:10:10;16;15;11
66155;PMS5003;52957;50.848;20.656;2024-01-27T12:20:36;16;15;11
66155;PMS5003;52957;50.848;20.656;2024-01-27T12:30:08;16;15;11
66155;PMS5003;52957;50.848;20.656;2024-01-27T12:40:28;18;16;10
66155;PMS5003;52957;50.848;20.656;2024-01-27T12:50:04;18;16;10
66155;PMS5003;52957;50.848;20.656;2024-01-27T13:00:10;18;16;10
66155;PMS5003;52957;50.848;20.656;2024-01-27T13:10:06;13;13;10
66155;PMS5003;52957;50.848;20.656;2024-01-27T13:20:08;13;13;10
66155;PMS5003;52957;50.848;20.656;2024-01-27T13:30:15;13;13;10
66155;PMS5003;52957;50.848;20.656;2024-01-27T13:40:17;18;16;10
66155;PMS5003;52957;50.848;20.656;2024-01-27T13:50:11;18;16;10
66155;PMS5003;52957;50.848;20.656;2024-01-27T14:00:02;18;16;10
66155;PMS5003;52957;50.848;20.656;2024-01-27T14:10:05;12;12;7
66155;PMS5003;52957;50.848;20.656;2024-01-27T14:20:03;12;12;7
66155;PMS5003;52957;50.848;20.656;2024-01-27T14:30:05;12;12;7
66155;PMS5003;52957;50.848;20.656;2024-01-27T14:50:15;13;13;8
66155;PMS5003;52957;50.848;20.656;2024-01-27T15:00:56;13;13;8
66155;PMS5003;52957;50.848;20.656;2024-01-27T15:10:05;28;27;17
66155;PMS5003;52957;50.848;20.656;2024-01-27T15:20:14;28;27;17
66155;PMS5003;52957;50.848;20.656;2024-01-27T15:30:02;28;27;17
66155;PMS5003;52957;50.848;20.656;2024-01-27T15:40:05;13;12;8
66155;PMS5003;52957;50.848;20.656;2024-01-27T15:50:06;13;12;8
66155;PMS5003;52957;50.848;20.656;2024-01-27T16:00:13;13;12;8
66155;PMS5003;52957;50.848;20.656;2024-01-27T16:20:18;13;11;6
66155;PMS5003;52957;50.848;20.656;2024-01-27T16:30:12;13;11;6
66155;PMS5003;52957;50.848;20.656;2024-01-27T16:50:18;24;20;11
66155;PMS5003;52957;50.848;20.656;2024-01-27T17:00:19;24;20;11
66155;PMS5003;52957;50.848;20.656;2024-01-27T17:10:06;24;20;11
66155;PMS5003;52957;50.848;20.656;2024-01-27T17:20:13;21;21;11
66155;PMS5003;52957;50.848;20.656;2024-01-27T17:30:18;21;21;11
66155;PMS5003;52957;50.848;20.656;2024-01-27T17:50:14;18;18;11
66155;PMS5003;52957;50.848;20.656;2024-01-27T18:00:12;18;18;11
66155;PMS5003;52957;50.848;20.656;2024-01-27T18:20:19;32;31;13
66155;PMS5003;52957;50.848;20.656;2024-01-27T18:30:13;32;31;13
66155;PMS5003;52957;50.848;20.656;2024-01-27T18:40:14;32;31;13
66155;PMS5003;52957;50.848;20.656;2024-01-27T18:50:14;16;16;9
66155;PMS5003;52957;50.848;20.656;2024-01-27T19:00:19;16;16;9
66155;PMS5003;52957;50.848;20.656;2024-01-27T19:10:14;16;16;9
66155;PMS5003;52957;50.848;20.656;2024-01-27T19:20:14;20;17;11
66155;PMS5003;52957;50.848;20.656;2024-01-27T19:30:09;20;17;11
66155;PMS5003;52957;50.848;20.656;2024-01-27T19:40:20;20;17;11
66155;PMS5003;52957;50.848;20.656;2024-01-27T19:50:14;34;31;14
66155;PMS5003;52957;50.848;20.656;2024-01-27T20:00:33;34;31;14
66155;PMS5003;52957;50.848;20.656;2024-01-27T20:10:08;34;31;14
66155;PMS5003;52957;50.848;20.656;2024-01-27T20:20:12;29;28;14
66155;PMS5003;52957;50.848;20.656;2024-01-27T20:30:19;29;28;14
66155;PMS5003;52957;50.848;20.656;2024-01-27T20:40:01;29;28;14
66155;PMS5003;52957;50.848;20.656;2024-01-27T20:50:07;30;26;12
66155;PMS5003;52957;50.848;20.656;2024-01-27T21:00:15;30;26;12
66155;PMS5003;52957;50.848;20.656;2024-01-27T21:10:08;30;26;12
66155;PMS5003;52957;50.848;20.656;2024-01-27T21:20:06;21;20;11
66155;PMS5003;52957;50.848;20.656;2024-01-27T21:30:01;21;20;11
66155;PMS5003;52957;50.848;20.656;2024-01-27T21:40:05;21;20;11
66155;PMS5003;52957;50.848;20.656;2024-01-27T21:50:09;20;19;11
66155;PMS5003;52957;50.848;20.656;2024-01-27T22:00:06;20;19;11
66155;PMS5003;52957;50.848;20.656;2024-01-27T22:10:02;20;19;11
66155;PMS5003;52957;50.848;20.656;2024-01-27T22:20:09;45;34;17
66155;PMS5003;52957;50.848;20.656;2024-01-27T22:30:02;45;34;17
66155;PMS5003;52957;50.848;20.656;2024-01-27T22:40:13;45;34;17
66155;PMS5003;52957;50.848;20.656;2024-01-27T22:50:02;32;27;14
66155;PMS5003;52957;50.848;20.656;2024-01-27T23:00:40;32;27;14
66155;PMS5003;52957;50.848;20.656;2024-01-27T23:10:05;12;11;8
66155;PMS5003;52957;50.848;20.656;2024-01-27T23:20:11;12;11;8
66155;PMS5003;52957;50.848;20.656;2024-01-27T23:30:12;12;11;8
66155;PMS5003;52957;50.848;20.656;2024-01-27T23:40:11;61;48;24
66155;PMS5003;52957;50.848;20.656;2024-01-27T23:50:16;61;48;24
